Terminal Aerodrome Forecast
Issued by NWS Wilmington, OH

Home | Current Version | Previous Version | Text Only | Print | Product List | Glossary On
Versions: 1 2 3 4 5 6 7 8 9 10 11 12 13 14 15 16 17 18 19 20 21 22 23 24 25 26 27 28 29 30 31 32 33 34 35 36 37
000
FTUS41 KILN 200523
TAFCMH
TAF
KCMH 200523Z 2006/2106 VRB03KT 5SM BR VCSH SCT004 OVC100
      TEMPO 2006/2010 4SM -SHRA BR BKN004
     FM201000 18009KT P6SM BKN012
     FM201500 20011KT P6SM VCSH BKN025
     FM201800 24012G18KT P6SM VCTS SCT025 BKN035CB
      TEMPO 2019/2023 4SM -TSRA OVC025CB
     FM210000 30015G25KT P6SM VCSH BKN040
     FM210400 34009KT P6SM SCT035=

USA.gov is the U.S. government's official web portal to all federal, state and local government web resources and services.